Aviation Digital Data Service (ADDS)

Output produced by METARs form (1246 UTC 16 July 2019)
found at http://www.aviationweather.gov/metar/data/
 
METAR text: VOCL 161230Z 31010KT 6000 FEW012 SCT080 27/23 Q1007 NOSIG
Conditions at: VOCL (CALICUT , IN) observed 1230 UTC 16 July 2019
Temperature: 27.0°C (81°F)
Dewpoint: 23.0°C (73°F) [RH = 79%]
Pressure (altimeter): 29.73 inches Hg (1007.0 mb)
Winds: from the NW (310 degrees) at 12 MPH (10 knots; 5.1 m/s)
Visibility: 4 miles ( 6 km)
Ceiling: at least 12,000 feet AGL
Clouds: few clouds at 1200 feet AGL
scattered clouds at 8000 feet AGL
Weather: no significant weather observed at this time

METAR text: VOCL 161200Z 31007KT 6000 FEW012 SCT080 28/23 Q1007 NOSIG
Conditions at: VOCL (CALICUT , IN) observed 1200 UTC 16 July 2019
Temperature: 28.0°C (82°F)
Dewpoint: 23.0°C (73°F) [RH = 74%]
Pressure (altimeter): 29.73 inches Hg (1007.0 mb)
Winds: from the NW (310 degrees) at 8 MPH (7 knots; 3.6 m/s)
Visibility: 4 miles ( 6 km)
Ceiling: at least 12,000 feet AGL
Clouds: few clouds at 1200 feet AGL
scattered clouds at 8000 feet AGL
Weather: no significant weather observed at this time

METAR text: VOCL 161130Z 30009KT 6000 FEW012 SCT080 29/24 Q1007 NOSIG
Conditions at: VOCL (CALICUT , IN) observed 1130 UTC 16 July 2019
Temperature: 29.0°C (84°F)
Dewpoint: 24.0°C (75°F) [RH = 74%]
Pressure (altimeter): 29.73 inches Hg (1007.0 mb)
Winds: from the WNW (300 degrees) at 10 MPH (9 knots; 4.6 m/s)
Visibility: 4 miles ( 6 km)
Ceiling: at least 12,000 feet AGL
Clouds: few clouds at 1200 feet AGL
scattered clouds at 8000 feet AGL
Weather: no significant weather observed at this time

METAR text: VOCL 161100Z 30006KT 6000 FEW012 SCT080 29/24 Q1007 NOSIG
Conditions at: VOCL (CALICUT , IN) observed 1100 UTC 16 July 2019
Temperature: 29.0°C (84°F)
Dewpoint: 24.0°C (75°F) [RH = 74%]
Pressure (altimeter): 29.73 inches Hg (1007.0 mb)
Winds: from the WNW (300 degrees) at 7 MPH (6 knots; 3.1 m/s)
Visibility: 4 miles ( 6 km)
Ceiling: at least 12,000 feet AGL
Clouds: few clouds at 1200 feet AGL
scattered clouds at 8000 feet AGL
Weather: no significant weather observed at this time

METAR text: VOCL 161030Z 32008KT 6000 FEW012 SCT080 28/24 Q1007 NOSIG
Conditions at: VOCL (CALICUT , IN) observed 1030 UTC 16 July 2019
Temperature: 28.0°C (82°F)
Dewpoint: 24.0°C (75°F) [RH = 79%]
Pressure (altimeter): 29.73 inches Hg (1007.0 mb)
Winds: from the NW (320 degrees) at 9 MPH (8 knots; 4.1 m/s)
Visibility: 4 miles ( 6 km)
Ceiling: at least 12,000 feet AGL
Clouds: few clouds at 1200 feet AGL
scattered clouds at 8000 feet AGL
Weather: no significant weather observed at this time

METAR text: VOCL 161000Z 32006KT 6000 SCT012 FEW025CB BKN080 29/24 Q1007 NOSIG
Conditions at: VOCL (CALICUT , IN) observed 1000 UTC 16 July 2019
Temperature: 29.0°C (84°F)
Dewpoint: 24.0°C (75°F) [RH = 74%]
Pressure (altimeter): 29.73 inches Hg (1007.0 mb)
Winds: from the NW (320 degrees) at 7 MPH (6 knots; 3.1 m/s)
Visibility: 4 miles ( 6 km)
Ceiling: 8000 feet AGL
Clouds: scattered clouds at 1200 feet AGL
few clouds at 2500 feet AGL
broken clouds at 8000 feet AGL
Weather: no significant weather observed at this time

METAR text: VOCL 160930Z 32007KT 6000 FEW008 SCT012 FEW025CB BKN080 28/24 Q1007 NOSIG
Conditions at: VOCL (CALICUT , IN) observed 0930 UTC 16 July 2019
Temperature: 28.0°C (82°F)
Dewpoint: 24.0°C (75°F) [RH = 79%]
Pressure (altimeter): 29.73 inches Hg (1007.0 mb)
Winds: from the NW (320 degrees) at 8 MPH (7 knots; 3.6 m/s)
Visibility: 4 miles ( 6 km)
Ceiling: 8000 feet AGL
Clouds: few clouds at 800 feet AGL
scattered clouds at 1200 feet AGL
few clouds at 2500 feet AGL
broken clouds at 8000 feet AGL
Weather: no significant weather observed at this time

METAR text: VOCL 160900Z 32006KT 5000 BR FEW006 SCT012 FEW025CB BKN080 28/24 Q1008 NOSIG
Conditions at: VOCL (CALICUT , IN) observed 0900 UTC 16 July 2019
Temperature: 28.0°C (82°F)
Dewpoint: 24.0°C (75°F) [RH = 79%]
Pressure (altimeter): 29.76 inches Hg (1008.0 mb)
Winds: from the NW (320 degrees) at 7 MPH (6 knots; 3.1 m/s)
Visibility: 3 miles ( 5 km)
Ceiling: 8000 feet AGL
Clouds: few clouds at 600 feet AGL
scattered clouds at 1200 feet AGL
few clouds at 2500 feet AGL
broken clouds at 8000 feet AGL
Weather: BR  (mist)

METAR text: VOCL 160830Z 29006KT 5000 BR FEW006 SCT012 FEW025CB BKN080 28/24 Q1008 NOSIG
Conditions at: VOCL (CALICUT , IN) observed 0830 UTC 16 July 2019
Temperature: 28.0°C (82°F)
Dewpoint: 24.0°C (75°F) [RH = 79%]
Pressure (altimeter): 29.76 inches Hg (1008.0 mb)
Winds: from the WNW (290 degrees) at 7 MPH (6 knots; 3.1 m/s)
Visibility: 3 miles ( 5 km)
Ceiling: 8000 feet AGL
Clouds: few clouds at 600 feet AGL
scattered clouds at 1200 feet AGL
few clouds at 2500 feet AGL
broken clouds at 8000 feet AGL
Weather: BR  (mist)

METAR text: VOCL 160800Z 31005KT 5000 BR FEW006 SCT012 FEW025CB BKN080 27/24 Q1009 NOSIG
Conditions at: VOCL (CALICUT , IN) observed 0800 UTC 16 July 2019
Temperature: 27.0°C (81°F)
Dewpoint: 24.0°C (75°F) [RH = 84%]
Pressure (altimeter): 29.79 inches Hg (1009.0 mb)
Winds: from the NW (310 degrees) at 6 MPH (5 knots; 2.6 m/s)
Visibility: 3 miles ( 5 km)
Ceiling: 8000 feet AGL
Clouds: few clouds at 600 feet AGL
scattered clouds at 1200 feet AGL
few clouds at 2500 feet AGL
broken clouds at 8000 feet AGL
Weather: BR  (mist)

METAR text: VOCL 160730Z 35010KT 5000 BR FEW006 SCT012 FEW025CB BKN080 27/24 Q1009 NOSIG
Conditions at: VOCL (CALICUT , IN) observed 0730 UTC 16 July 2019
Temperature: 27.0°C (81°F)
Dewpoint: 24.0°C (75°F) [RH = 84%]
Pressure (altimeter): 29.79 inches Hg (1009.0 mb)
Winds: from the N (350 degrees) at 12 MPH (10 knots; 5.1 m/s)
Visibility: 3 miles ( 5 km)
Ceiling: 8000 feet AGL
Clouds: few clouds at 600 feet AGL
scattered clouds at 1200 feet AGL
few clouds at 2500 feet AGL
broken clouds at 8000 feet AGL
Weather: BR  (mist)

METAR text: VOCL 160700Z 36008KT 5000 BR FEW006 SCT012 FEW025CB BKN080 26/24 Q1010 NOSIG
Conditions at: VOCL (CALICUT , IN) observed 0700 UTC 16 July 2019
Temperature: 26.0°C (79°F)
Dewpoint: 24.0°C (75°F) [RH = 89%]
Pressure (altimeter): 29.82 inches Hg (1010.0 mb)
Winds: from the N (360 degrees) at 9 MPH (8 knots; 4.1 m/s)
Visibility: 3 miles ( 5 km)
Ceiling: 8000 feet AGL
Clouds: few clouds at 600 feet AGL
scattered clouds at 1200 feet AGL
few clouds at 2500 feet AGL
broken clouds at 8000 feet AGL
Weather: BR  (mist)

METAR text: VOCL 160630Z 36006KT 5000 BR SCT006 SCT012 FEW025CB BKN080 25/24 Q1010 NOSIG
Conditions at: VOCL (CALICUT , IN) observed 0630 UTC 16 July 2019
Temperature: 25.0°C (77°F)
Dewpoint: 24.0°C (75°F) [RH = 94%]
Pressure (altimeter): 29.82 inches Hg (1010.0 mb)
Winds: from the N (360 degrees) at 7 MPH (6 knots; 3.1 m/s)
Visibility: 3 miles ( 5 km)
Ceiling: 8000 feet AGL
Clouds: scattered clouds at 600 feet AGL
scattered clouds at 1200 feet AGL
few clouds at 2500 feet AGL
broken clouds at 8000 feet AGL
Weather: BR  (mist)

METAR text: VOCL 160600Z 35007KT 5000 -RA BR SCT004 SCT012 FEW025CB BKN080 25/24 Q1011 NOSIG
Conditions at: VOCL (CALICUT , IN) observed 0600 UTC 16 July 2019
Temperature: 25.0°C (77°F)
Dewpoint: 24.0°C (75°F) [RH = 94%]
Pressure (altimeter): 29.85 inches Hg (1011.0 mb)
Winds: from the N (350 degrees) at 8 MPH (7 knots; 3.6 m/s)
Visibility: 3 miles ( 5 km)
Ceiling: 8000 feet AGL
Clouds: scattered clouds at 400 feet AGL
scattered clouds at 1200 feet AGL
few clouds at 2500 feet AGL
broken clouds at 8000 feet AGL
Weather: -RA BR  (light rain, mist)

METAR text: VOCL 160530Z 02007KT 5000 -RA SCT004 SCT012 FEW025CB BKN080 25/24 Q1011 TEMPO 3000 -RA BR
Conditions at: VOCL (CALICUT , IN) observed 0530 UTC 16 July 2019
Temperature: 25.0°C (77°F)
Dewpoint: 24.0°C (75°F) [RH = 94%]
Pressure (altimeter): 29.85 inches Hg (1011.0 mb)
Winds: from the NNE (20 degrees) at 8 MPH (7 knots; 3.6 m/s)
Visibility: 3 miles ( 5 km)
Ceiling: 8000 feet AGL
Clouds: scattered clouds at 400 feet AGL
scattered clouds at 1200 feet AGL
few clouds at 2500 feet AGL
broken clouds at 8000 feet AGL
Weather: -RA  (light rain)

METAR text: VOCL 160500Z 01006KT 4000 -RA SCT004 SCT012 FEW025CB BKN080 25/24 Q1011 BECMG 5000 -RA BR
Conditions at: VOCL (CALICUT , IN) observed 0500 UTC 16 July 2019
Temperature: 25.0°C (77°F)
Dewpoint: 24.0°C (75°F) [RH = 94%]
Pressure (altimeter): 29.85 inches Hg (1011.0 mb)
Winds: from the N (10 degrees) at 7 MPH (6 knots; 3.1 m/s)
Visibility: 2.49 miles (4.01 km)
Ceiling: 8000 feet AGL
Clouds: scattered clouds at 400 feet AGL
scattered clouds at 1200 feet AGL
few clouds at 2500 feet AGL
broken clouds at 8000 feet AGL
Weather: -RA  (light rain)

METAR text: VOCL 160430Z 36005KT 4000 BR SCT004 SCT012 FEW025CB BKN080 25/24 Q1011 BECMG 5000 BR
Conditions at: VOCL (CALICUT , IN) observed 0430 UTC 16 July 2019
Temperature: 25.0°C (77°F)
Dewpoint: 24.0°C (75°F) [RH = 94%]
Pressure (altimeter): 29.85 inches Hg (1011.0 mb)
Winds: from the N (360 degrees) at 6 MPH (5 knots; 2.6 m/s)
Visibility: 2.49 miles (4.01 km)
Ceiling: 8000 feet AGL
Clouds: scattered clouds at 400 feet AGL
scattered clouds at 1200 feet AGL
few clouds at 2500 feet AGL
broken clouds at 8000 feet AGL
Weather: BR  (mist)

METAR text: VOCL 160400Z 30005KT 2000 -RA BR SCT004 SCT012 FEW025CB BKN080 25/24 Q1011 BECMG 3000 -RA BR
Conditions at: VOCL (CALICUT , IN) observed 0400 UTC 16 July 2019
Temperature: 25.0°C (77°F)
Dewpoint: 24.0°C (75°F) [RH = 94%]
Pressure (altimeter): 29.85 inches Hg (1011.0 mb)
Winds: from the WNW (300 degrees) at 6 MPH (5 knots; 2.6 m/s)
Visibility: 1.24 miles (2.00 km)
Ceiling: 8000 feet AGL
Clouds: scattered clouds at 400 feet AGL
scattered clouds at 1200 feet AGL
few clouds at 2500 feet AGL
broken clouds at 8000 feet AGL
Weather: -RA BR  (light rain, mist)

METAR text: VOCL 160330Z 02005KT 2000 RA SCT004 SCT012 FEW025CB OVC080 25/24 Q1010 TEMPO 1500 RA
Conditions at: VOCL (CALICUT , IN) observed 0330 UTC 16 July 2019
Temperature: 25.0°C (77°F)
Dewpoint: 24.0°C (75°F) [RH = 94%]
Pressure (altimeter): 29.82 inches Hg (1010.0 mb)
Winds: from the NNE (20 degrees) at 6 MPH (5 knots; 2.6 m/s)
Visibility: 1.24 miles (2.00 km)
Ceiling: 8000 feet AGL
Clouds: scattered clouds at 400 feet AGL
scattered clouds at 1200 feet AGL
few clouds at 2500 feet AGL
overcast cloud deck at 8000 feet AGL
Weather: RA  (moderate rain)

METAR text: VOCL 160300Z 36005KT 3000 -RA BR SCT004 SCT012 FEW025CB OVC080 25/24 Q1010 NOSIG
Conditions at: VOCL (CALICUT , IN) observed 0300 UTC 16 July 2019
Temperature: 25.0°C (77°F)
Dewpoint: 24.0°C (75°F) [RH = 94%]
Pressure (altimeter): 29.82 inches Hg (1010.0 mb)
Winds: from the N (360 degrees) at 6 MPH (5 knots; 2.6 m/s)
Visibility: 1.86 miles (2.99 km)
Ceiling: 8000 feet AGL
Clouds: scattered clouds at 400 feet AGL
scattered clouds at 1200 feet AGL
few clouds at 2500 feet AGL
overcast cloud deck at 8000 feet AGL
Weather: -RA BR  (light rain, mist)

METAR text: VOCL 160230Z 36005KT 2000 -RA SCT004 SCT012 FEW025CB OVC080 25/24 Q1010 BECMG 3000 -RA BR
Conditions at: VOCL (CALICUT , IN) observed 0230 UTC 16 July 2019
Temperature: 25.0°C (77°F)
Dewpoint: 24.0°C (75°F) [RH = 94%]
Pressure (altimeter): 29.82 inches Hg (1010.0 mb)
Winds: from the N (360 degrees) at 6 MPH (5 knots; 2.6 m/s)
Visibility: 1.24 miles (2.00 km)
Ceiling: 8000 feet AGL
Clouds: scattered clouds at 400 feet AGL
scattered clouds at 1200 feet AGL
few clouds at 2500 feet AGL
overcast cloud deck at 8000 feet AGL
Weather: -RA  (light rain)

METAR text: VOCL 160200Z 36004KT 1500 RA SCT004 SCT012 FEW025CB OVC080 24/24 Q1010 NOSIG
Conditions at: VOCL (CALICUT , IN) observed 0200 UTC 16 July 2019
Temperature: 24.0°C (75°F)
Dewpoint: 24.0°C (75°F) [RH = 100%]
Pressure (altimeter): 29.82 inches Hg (1010.0 mb)
Winds: from the N (360 degrees) at 5 MPH (4 knots; 2.1 m/s)
Visibility: 0.93 miles (1.50 km)
Ceiling: 8000 feet AGL
Clouds: scattered clouds at 400 feet AGL
scattered clouds at 1200 feet AGL
few clouds at 2500 feet AGL
overcast cloud deck at 8000 feet AGL
Weather: RA  (moderate rain)

METAR text: VOCL 160130Z 24004KT 1500 RA SCT004 SCT012 FEW025CB OVC080 25/24 Q1009 BECMG 2000 RA
Conditions at: VOCL (CALICUT , IN) observed 0130 UTC 16 July 2019
Temperature: 25.0°C (77°F)
Dewpoint: 24.0°C (75°F) [RH = 94%]
Pressure (altimeter): 29.79 inches Hg (1009.0 mb)
Winds: from the WSW (240 degrees) at 5 MPH (4 knots; 2.1 m/s)
Visibility: 0.93 miles (1.50 km)
Ceiling: 8000 feet AGL
Clouds: scattered clouds at 400 feet AGL
scattered clouds at 1200 feet AGL
few clouds at 2500 feet AGL
overcast cloud deck at 8000 feet AGL
Weather: RA  (moderate rain)

METAR text: VOCL 160100Z 01004KT 2000 RA SCT006 SCT012 FEW025CB OVC080 25/24 Q1009 TEMPO 1500 RA
Conditions at: VOCL (CALICUT , IN) observed 0100 UTC 16 July 2019
Temperature: 25.0°C (77°F)
Dewpoint: 24.0°C (75°F) [RH = 94%]
Pressure (altimeter): 29.79 inches Hg (1009.0 mb)
Winds: from the N (10 degrees) at 5 MPH (4 knots; 2.1 m/s)
Visibility: 1.24 miles (2.00 km)
Ceiling: 8000 feet AGL
Clouds: scattered clouds at 600 feet AGL
scattered clouds at 1200 feet AGL
few clouds at 2500 feet AGL
overcast cloud deck at 8000 feet AGL
Weather: RA  (moderate rain)

METAR text: VOCL 160030Z 35004KT 4000 BR SCT010 SCT018 FEW025CB BKN080 25/24 Q1008 TEMPO 3000 RA
Conditions at: VOCL (CALICUT , IN) observed 0030 UTC 16 July 2019
Temperature: 25.0°C (77°F)
Dewpoint: 24.0°C (75°F) [RH = 94%]
Pressure (altimeter): 29.76 inches Hg (1008.0 mb)
Winds: from the N (350 degrees) at 5 MPH (4 knots; 2.1 m/s)
Visibility: 2.49 miles (4.01 km)
Ceiling: 8000 feet AGL
Clouds: scattered clouds at 1000 feet AGL
scattered clouds at 1800 feet AGL
few clouds at 2500 feet AGL
broken clouds at 8000 feet AGL
Weather: BR  (mist)

METAR text: VOCL 160000Z 33008KT 4000 -RA SCT010 BKN080 FEW025CB 25/24 Q1008 TEMPO 3000 RA
Conditions at: VOCL (CALICUT , IN) observed 0000 UTC 16 July 2019
Temperature: 25.0°C (77°F)
Dewpoint: 24.0°C (75°F) [RH = 94%]
Pressure (altimeter): 29.76 inches Hg (1008.0 mb)
Winds: from the NNW (330 degrees) at 9 MPH (8 knots; 4.1 m/s)
Visibility: 2.49 miles (4.01 km)
Ceiling: 8000 feet AGL
Clouds: scattered clouds at 1000 feet AGL
broken clouds at 8000 feet AGL
few clouds at 2500 feet AGL
Weather: -RA  (light rain)

METAR text: VOCL 152330Z 32003KT 6000 BR FEW012 SCT080 FEW025CB 25/23 Q1008 NOSIG
Conditions at: VOCL (CALICUT , IN) observed 2330 UTC 15 July 2019
Temperature: 25.0°C (77°F)
Dewpoint: 23.0°C (73°F) [RH = 89%]
Pressure (altimeter): 29.76 inches Hg (1008.0 mb)
Winds: from the NW (320 degrees) at 3 MPH (3 knots; 1.5 m/s)
Visibility: 4 miles ( 6 km)
Ceiling: at least 12,000 feet AGL
Clouds: few clouds at 1200 feet AGL
scattered clouds at 8000 feet AGL
few clouds at 2500 feet AGL
Weather: BR  (mist)

METAR text: VOCL 152300Z 32004KT 6000 BR FEW012 SCT080 FEW025CB 25/23 Q1008 NOSIG
Conditions at: VOCL (CALICUT , IN) observed 2300 UTC 15 July 2019
Temperature: 25.0°C (77°F)
Dewpoint: 23.0°C (73°F) [RH = 89%]
Pressure (altimeter): 29.76 inches Hg (1008.0 mb)
Winds: from the NW (320 degrees) at 5 MPH (4 knots; 2.1 m/s)
Visibility: 4 miles ( 6 km)
Ceiling: at least 12,000 feet AGL
Clouds: few clouds at 1200 feet AGL
scattered clouds at 8000 feet AGL
few clouds at 2500 feet AGL
Weather: BR  (mist)

METAR text: VOCL 152230Z 31003KT 6000 -RA FEW012 SCT080 FEW025CB 25/23 Q1007 TEMPO 3000 RA
Conditions at: VOCL (CALICUT , IN) observed 2230 UTC 15 July 2019
Temperature: 25.0°C (77°F)
Dewpoint: 23.0°C (73°F) [RH = 89%]
Pressure (altimeter): 29.73 inches Hg (1007.0 mb)
Winds: from the NW (310 degrees) at 3 MPH (3 knots; 1.5 m/s)
Visibility: 4 miles ( 6 km)
Ceiling: at least 12,000 feet AGL
Clouds: few clouds at 1200 feet AGL
scattered clouds at 8000 feet AGL
few clouds at 2500 feet AGL
Weather: -RA  (light rain)

METAR text: VOCL 152200Z 34003KT 6000 FEW015 SCT080 FEW025CB 26/23 Q1008 NOSIG
Conditions at: VOCL (CALICUT , IN) observed 2200 UTC 15 July 2019
Temperature: 26.0°C (79°F)
Dewpoint: 23.0°C (73°F) [RH = 84%]
Pressure (altimeter): 29.76 inches Hg (1008.0 mb)
Winds: from the NNW (340 degrees) at 3 MPH (3 knots; 1.5 m/s)
Visibility: 4 miles ( 6 km)
Ceiling: at least 12,000 feet AGL
Clouds: few clouds at 1500 feet AGL
scattered clouds at 8000 feet AGL
few clouds at 2500 feet AGL
Weather: no significant weather observed at this time

METAR text: VOCL 152130Z 34003KT 6000 FEW015 SCT080 FEW025CB 26/23 Q1008 NOSIG
Conditions at: VOCL (CALICUT , IN) observed 2130 UTC 15 July 2019
Temperature: 26.0°C (79°F)
Dewpoint: 23.0°C (73°F) [RH = 84%]
Pressure (altimeter): 29.76 inches Hg (1008.0 mb)
Winds: from the NNW (340 degrees) at 3 MPH (3 knots; 1.5 m/s)
Visibility: 4 miles ( 6 km)
Ceiling: at least 12,000 feet AGL
Clouds: few clouds at 1500 feet AGL
scattered clouds at 8000 feet AGL
few clouds at 2500 feet AGL
Weather: no significant weather observed at this time

METAR text: VOCL 152100Z 30003KT 6000 FEW015 SCT080 FEW025CB 26/23 Q1008 NOSIG
Conditions at: VOCL (CALICUT , IN) observed 2100 UTC 15 July 2019
Temperature: 26.0°C (79°F)
Dewpoint: 23.0°C (73°F) [RH = 84%]
Pressure (altimeter): 29.76 inches Hg (1008.0 mb)
Winds: from the WNW (300 degrees) at 3 MPH (3 knots; 1.5 m/s)
Visibility: 4 miles ( 6 km)
Ceiling: at least 12,000 feet AGL
Clouds: few clouds at 1500 feet AGL
scattered clouds at 8000 feet AGL
few clouds at 2500 feet AGL
Weather: no significant weather observed at this time

METAR text: VOCL 152030Z 23004KT 6000 FEW015 SCT080 FEW025CB 26/23 Q1008 NOSIG
Conditions at: VOCL (CALICUT , IN) observed 2030 UTC 15 July 2019
Temperature: 26.0°C (79°F)
Dewpoint: 23.0°C (73°F) [RH = 84%]
Pressure (altimeter): 29.76 inches Hg (1008.0 mb)
Winds: from the SW (230 degrees) at 5 MPH (4 knots; 2.1 m/s)
Visibility: 4 miles ( 6 km)
Ceiling: at least 12,000 feet AGL
Clouds: few clouds at 1500 feet AGL
scattered clouds at 8000 feet AGL
few clouds at 2500 feet AGL
Weather: no significant weather observed at this time

METAR text: VOCL 152000Z 33004KT 6000 FEW015 SCT080 26/23 Q1009 NOSIG
Conditions at: VOCL (CALICUT , IN) observed 2000 UTC 15 July 2019
Temperature: 26.0°C (79°F)
Dewpoint: 23.0°C (73°F) [RH = 84%]
Pressure (altimeter): 29.79 inches Hg (1009.0 mb)
Winds: from the NNW (330 degrees) at 5 MPH (4 knots; 2.1 m/s)
Visibility: 4 miles ( 6 km)
Ceiling: at least 12,000 feet AGL
Clouds: few clouds at 1500 feet AGL
scattered clouds at 8000 feet AGL
Weather: no significant weather observed at this time

METAR text: VOCL 151930Z 23004KT 6000 FEW015 SCT080 26/23 Q1009 NOSIG
Conditions at: VOCL (CALICUT , IN) observed 1930 UTC 15 July 2019
Temperature: 26.0°C (79°F)
Dewpoint: 23.0°C (73°F) [RH = 84%]
Pressure (altimeter): 29.79 inches Hg (1009.0 mb)
Winds: from the SW (230 degrees) at 5 MPH (4 knots; 2.1 m/s)
Visibility: 4 miles ( 6 km)
Ceiling: at least 12,000 feet AGL
Clouds: few clouds at 1500 feet AGL
scattered clouds at 8000 feet AGL
Weather: no significant weather observed at this time

METAR text: VOCL 151900Z 28004KT 6000 FEW015 SCT080 26/23 Q1009 NOSIG
Conditions at: VOCL (CALICUT , IN) observed 1900 UTC 15 July 2019
Temperature: 26.0°C (79°F)
Dewpoint: 23.0°C (73°F) [RH = 84%]
Pressure (altimeter): 29.79 inches Hg (1009.0 mb)
Winds: from the W (280 degrees) at 5 MPH (4 knots; 2.1 m/s)
Visibility: 4 miles ( 6 km)
Ceiling: at least 12,000 feet AGL
Clouds: few clouds at 1500 feet AGL
scattered clouds at 8000 feet AGL
Weather: no significant weather observed at this time

METAR text: VOCL 151830Z 35005KT 6000 FEW015 SCT080 26/23 Q1009 NOSIG
Conditions at: VOCL (CALICUT , IN) observed 1830 UTC 15 July 2019
Temperature: 26.0°C (79°F)
Dewpoint: 23.0°C (73°F) [RH = 84%]
Pressure (altimeter): 29.79 inches Hg (1009.0 mb)
Winds: from the N (350 degrees) at 6 MPH (5 knots; 2.6 m/s)
Visibility: 4 miles ( 6 km)
Ceiling: at least 12,000 feet AGL
Clouds: few clouds at 1500 feet AGL
scattered clouds at 8000 feet AGL
Weather: no significant weather observed at this time

METAR text: VOCL 151800Z 36003KT 6000 FEW015 SCT080 26/23 Q1010 NOSIG
Conditions at: VOCL (CALICUT , IN) observed 1800 UTC 15 July 2019
Temperature: 26.0°C (79°F)
Dewpoint: 23.0°C (73°F) [RH = 84%]
Pressure (altimeter): 29.82 inches Hg (1010.0 mb)
Winds: from the N (360 degrees) at 3 MPH (3 knots; 1.5 m/s)
Visibility: 4 miles ( 6 km)
Ceiling: at least 12,000 feet AGL
Clouds: few clouds at 1500 feet AGL
scattered clouds at 8000 feet AGL
Weather: no significant weather observed at this time

METAR text: VOCL 151730Z 03004KT 6000 FEW015 SCT080 26/23 Q1010 NOSIG
Conditions at: VOCL (CALICUT , IN) observed 1730 UTC 15 July 2019
Temperature: 26.0°C (79°F)
Dewpoint: 23.0°C (73°F) [RH = 84%]
Pressure (altimeter): 29.82 inches Hg (1010.0 mb)
Winds: from the NNE (30 degrees) at 5 MPH (4 knots; 2.1 m/s)
Visibility: 4 miles ( 6 km)
Ceiling: at least 12,000 feet AGL
Clouds: few clouds at 1500 feet AGL
scattered clouds at 8000 feet AGL
Weather: no significant weather observed at this time

METAR text: VOCL 151700Z 35005KT 6000 FEW015 SCT080 26/23 Q1010 NOSIG
Conditions at: VOCL (CALICUT , IN) observed 1700 UTC 15 July 2019
Temperature: 26.0°C (79°F)
Dewpoint: 23.0°C (73°F) [RH = 84%]
Pressure (altimeter): 29.82 inches Hg (1010.0 mb)
Winds: from the N (350 degrees) at 6 MPH (5 knots; 2.6 m/s)
Visibility: 4 miles ( 6 km)
Ceiling: at least 12,000 feet AGL
Clouds: few clouds at 1500 feet AGL
scattered clouds at 8000 feet AGL
Weather: no significant weather observed at this time

METAR text: VOCL 151630Z 35005KT 6000 FEW015 SCT080 26/23 Q1010 NOSIG
Conditions at: VOCL (CALICUT , IN) observed 1630 UTC 15 July 2019
Temperature: 26.0°C (79°F)
Dewpoint: 23.0°C (73°F) [RH = 84%]
Pressure (altimeter): 29.82 inches Hg (1010.0 mb)
Winds: from the N (350 degrees) at 6 MPH (5 knots; 2.6 m/s)
Visibility: 4 miles ( 6 km)
Ceiling: at least 12,000 feet AGL
Clouds: few clouds at 1500 feet AGL
scattered clouds at 8000 feet AGL
Weather: no significant weather observed at this time

METAR text: VOCL 151600Z 35004KT 6000 FEW015 SCT080 27/23 Q1010 NOSIG
Conditions at: VOCL (CALICUT , IN) observed 1600 UTC 15 July 2019
Temperature: 27.0°C (81°F)
Dewpoint: 23.0°C (73°F) [RH = 79%]
Pressure (altimeter): 29.82 inches Hg (1010.0 mb)
Winds: from the N (350 degrees) at 5 MPH (4 knots; 2.1 m/s)
Visibility: 4 miles ( 6 km)
Ceiling: at least 12,000 feet AGL
Clouds: few clouds at 1500 feet AGL
scattered clouds at 8000 feet AGL
Weather: no significant weather observed at this time

METAR text: VOCL 151530Z 32005KT 6000 FEW015 SCT080 27/23 Q1009 NOSIG
Conditions at: VOCL (CALICUT , IN) observed 1530 UTC 15 July 2019
Temperature: 27.0°C (81°F)
Dewpoint: 23.0°C (73°F) [RH = 79%]
Pressure (altimeter): 29.79 inches Hg (1009.0 mb)
Winds: from the NW (320 degrees) at 6 MPH (5 knots; 2.6 m/s)
Visibility: 4 miles ( 6 km)
Ceiling: at least 12,000 feet AGL
Clouds: few clouds at 1500 feet AGL
scattered clouds at 8000 feet AGL
Weather: no significant weather observed at this time

METAR text: VOCL 151500Z 30006KT 6000 FEW015 SCT080 27/23 Q1009 NOSIG
Conditions at: VOCL (CALICUT , IN) observed 1500 UTC 15 July 2019
Temperature: 27.0°C (81°F)
Dewpoint: 23.0°C (73°F) [RH = 79%]
Pressure (altimeter): 29.79 inches Hg (1009.0 mb)
Winds: from the WNW (300 degrees) at 7 MPH (6 knots; 3.1 m/s)
Visibility: 4 miles ( 6 km)
Ceiling: at least 12,000 feet AGL
Clouds: few clouds at 1500 feet AGL
scattered clouds at 8000 feet AGL
Weather: no significant weather observed at this time

METAR text: VOCL 151430Z 31005KT 6000 FEW015 SCT080 27/23 Q1008 NOSIG
Conditions at: VOCL (CALICUT , IN) observed 1430 UTC 15 July 2019
Temperature: 27.0°C (81°F)
Dewpoint: 23.0°C (73°F) [RH = 79%]
Pressure (altimeter): 29.76 inches Hg (1008.0 mb)
Winds: from the NW (310 degrees) at 6 MPH (5 knots; 2.6 m/s)
Visibility: 4 miles ( 6 km)
Ceiling: at least 12,000 feet AGL
Clouds: few clouds at 1500 feet AGL
scattered clouds at 8000 feet AGL
Weather: no significant weather observed at this time

METAR text: VOCL 151400Z 29006KT 6000 FEW015 SCT080 27/23 Q1008 NOSIG
Conditions at: VOCL (CALICUT , IN) observed 1400 UTC 15 July 2019
Temperature: 27.0°C (81°F)
Dewpoint: 23.0°C (73°F) [RH = 79%]
Pressure (altimeter): 29.76 inches Hg (1008.0 mb)
Winds: from the WNW (290 degrees) at 7 MPH (6 knots; 3.1 m/s)
Visibility: 4 miles ( 6 km)
Ceiling: at least 12,000 feet AGL
Clouds: few clouds at 1500 feet AGL
scattered clouds at 8000 feet AGL
Weather: no significant weather observed at this time

METAR text: VOCL 151330Z 27006KT 6000 FEW015 SCT080 FEW025TCU 28/23 Q1007 NOSIG
Conditions at: VOCL (CALICUT , IN) observed 1330 UTC 15 July 2019
Temperature: 28.0°C (82°F)
Dewpoint: 23.0°C (73°F) [RH = 74%]
Pressure (altimeter): 29.73 inches Hg (1007.0 mb)
Winds: from the W (270 degrees) at 7 MPH (6 knots; 3.1 m/s)
Visibility: 4 miles ( 6 km)
Ceiling: at least 12,000 feet AGL
Clouds: few clouds at 1500 feet AGL
scattered clouds at 8000 feet AGL
few clouds at 2500 feet AGL
Weather: no significant weather observed at this time

METAR text: VOCL 151300Z 26008KT 7000 FEW015 SCT080 FEW025TCU 28/24 Q1007 NOSIG
Conditions at: VOCL (CALICUT , IN) observed 1300 UTC 15 July 2019
Temperature: 28.0°C (82°F)
Dewpoint: 24.0°C (75°F) [RH = 79%]
Pressure (altimeter): 29.73 inches Hg (1007.0 mb)
Winds: from the W (260 degrees) at 9 MPH (8 knots; 4.1 m/s)
Visibility: 4 miles ( 7 km)
Ceiling: at least 12,000 feet AGL
Clouds: few clouds at 1500 feet AGL
scattered clouds at 8000 feet AGL
few clouds at 2500 feet AGL
Weather: no significant weather observed at this time

METAR text: VOCL 151230Z 25010KT 8000 FEW015 SCT080 FEW025TCU 29/24 Q1007 NOSIG
Conditions at: VOCL (CALICUT , IN) observed 1230 UTC 15 July 2019
Temperature: 29.0°C (84°F)
Dewpoint: 24.0°C (75°F) [RH = 74%]
Pressure (altimeter): 29.73 inches Hg (1007.0 mb)
Winds: from the WSW (250 degrees) at 12 MPH (10 knots; 5.1 m/s)
Visibility: 5 miles ( 8 km)
Ceiling: at least 12,000 feet AGL
Clouds: few clouds at 1500 feet AGL
scattered clouds at 8000 feet AGL
few clouds at 2500 feet AGL
Weather: no significant weather observed at this time

METAR text: VOCL 151200Z 27010KT 8000 FEW015 SCT080 29/24 Q1007 NOSIG
Conditions at: VOCL (CALICUT , IN) observed 1200 UTC 15 July 2019
Temperature: 29.0°C (84°F)
Dewpoint: 24.0°C (75°F) [RH = 74%]
Pressure (altimeter): 29.73 inches Hg (1007.0 mb)
Winds: from the W (270 degrees) at 12 MPH (10 knots; 5.1 m/s)
Visibility: 5 miles ( 8 km)
Ceiling: at least 12,000 feet AGL
Clouds: few clouds at 1500 feet AGL
scattered clouds at 8000 feet AGL
Weather: no significant weather observed at this time

METAR text: VOCL 151130Z 27010KT 8000 FEW015 SCT080 29/24 Q1007 NOSIG
Conditions at: VOCL (CALICUT , IN) observed 1130 UTC 15 July 2019
Temperature: 29.0°C (84°F)
Dewpoint: 24.0°C (75°F) [RH = 74%]
Pressure (altimeter): 29.73 inches Hg (1007.0 mb)
Winds: from the W (270 degrees) at 12 MPH (10 knots; 5.1 m/s)
Visibility: 5 miles ( 8 km)
Ceiling: at least 12,000 feet AGL
Clouds: few clouds at 1500 feet AGL
scattered clouds at 8000 feet AGL
Weather: no significant weather observed at this time

METAR text: VOCL 151100Z 28010KT 8000 FEW015 SCT080 30/24 Q1007 NOSIG
Conditions at: VOCL (CALICUT , IN) observed 1100 UTC 15 July 2019
Temperature: 30.0°C (86°F)
Dewpoint: 24.0°C (75°F) [RH = 70%]
Pressure (altimeter): 29.73 inches Hg (1007.0 mb)
Winds: from the W (280 degrees) at 12 MPH (10 knots; 5.1 m/s)
Visibility: 5 miles ( 8 km)
Ceiling: at least 12,000 feet AGL
Clouds: few clouds at 1500 feet AGL
scattered clouds at 8000 feet AGL
Weather: no significant weather observed at this time

METAR text: VOCL 151030Z 31010KT 8000 FEW015 SCT080 31/24 Q1007 NOSIG
Conditions at: VOCL (CALICUT , IN) observed 1030 UTC 15 July 2019
Temperature: 31.0°C (88°F)
Dewpoint: 24.0°C (75°F) [RH = 66%]
Pressure (altimeter): 29.73 inches Hg (1007.0 mb)
Winds: from the NW (310 degrees) at 12 MPH (10 knots; 5.1 m/s)
Visibility: 5 miles ( 8 km)
Ceiling: at least 12,000 feet AGL
Clouds: few clouds at 1500 feet AGL
scattered clouds at 8000 feet AGL
Weather: no significant weather observed at this time

METAR text: VOCL 151000Z 31010KT 8000 FEW015 SCT020 FEW025CB 31/24 Q1007 NOSIG
Conditions at: VOCL (CALICUT , IN) observed 1000 UTC 15 July 2019
Temperature: 31.0°C (88°F)
Dewpoint: 24.0°C (75°F) [RH = 66%]
Pressure (altimeter): 29.73 inches Hg (1007.0 mb)
Winds: from the NW (310 degrees) at 12 MPH (10 knots; 5.1 m/s)
Visibility: 5 miles ( 8 km)
Ceiling: at least 12,000 feet AGL
Clouds: few clouds at 1500 feet AGL
scattered clouds at 2000 feet AGL
few clouds at 2500 feet AGL
Weather: no significant weather observed at this time

METAR text: VOCL 150930Z 29012KT 8000 FEW015 SCT020 FEW025CB 31/24 Q1007 NOSIG
Conditions at: VOCL (CALICUT , IN) observed 0930 UTC 15 July 2019
Temperature: 31.0°C (88°F)
Dewpoint: 24.0°C (75°F) [RH = 66%]
Pressure (altimeter): 29.73 inches Hg (1007.0 mb)
Winds: from the WNW (290 degrees) at 14 MPH (12 knots; 6.2 m/s)
Visibility: 5 miles ( 8 km)
Ceiling: at least 12,000 feet AGL
Clouds: few clouds at 1500 feet AGL
scattered clouds at 2000 feet AGL
few clouds at 2500 feet AGL
Weather: no significant weather observed at this time

METAR text: VOCL 150900Z 25012KT 8000 FEW015 SCT020 FEW025CB 31/24 Q1008 NOSIG
Conditions at: VOCL (CALICUT , IN) observed 0900 UTC 15 July 2019
Temperature: 31.0°C (88°F)
Dewpoint: 24.0°C (75°F) [RH = 66%]
Pressure (altimeter): 29.76 inches Hg (1008.0 mb)
Winds: from the WSW (250 degrees) at 14 MPH (12 knots; 6.2 m/s)
Visibility: 5 miles ( 8 km)
Ceiling: at least 12,000 feet AGL
Clouds: few clouds at 1500 feet AGL
scattered clouds at 2000 feet AGL
few clouds at 2500 feet AGL
Weather: no significant weather observed at this time

METAR text: VOCL 150830Z 30008KT 8000 FEW015 SCT020 FEW025CB 31/24 Q1008 NOSIG
Conditions at: VOCL (CALICUT , IN) observed 0830 UTC 15 July 2019
Temperature: 31.0°C (88°F)
Dewpoint: 24.0°C (75°F) [RH = 66%]
Pressure (altimeter): 29.76 inches Hg (1008.0 mb)
Winds: from the WNW (300 degrees) at 9 MPH (8 knots; 4.1 m/s)
Visibility: 5 miles ( 8 km)
Ceiling: at least 12,000 feet AGL
Clouds: few clouds at 1500 feet AGL
scattered clouds at 2000 feet AGL
few clouds at 2500 feet AGL
Weather: no significant weather observed at this time

METAR text: VOCL 150800Z 30008KT 8000 FEW015 SCT020 FEW025CB 31/24 Q1008 NOSIG
Conditions at: VOCL (CALICUT , IN) observed 0800 UTC 15 July 2019
Temperature: 31.0°C (88°F)
Dewpoint: 24.0°C (75°F) [RH = 66%]
Pressure (altimeter): 29.76 inches Hg (1008.0 mb)
Winds: from the WNW (300 degrees) at 9 MPH (8 knots; 4.1 m/s)
Visibility: 5 miles ( 8 km)
Ceiling: at least 12,000 feet AGL
Clouds: few clouds at 1500 feet AGL
scattered clouds at 2000 feet AGL
few clouds at 2500 feet AGL
Weather: no significant weather observed at this time

METAR text: VOCL 150730Z 34010KT 8000 FEW015 SCT020 FEW025CB 30/24 Q1008 NOSIG
Conditions at: VOCL (CALICUT , IN) observed 0730 UTC 15 July 2019
Temperature: 30.0°C (86°F)
Dewpoint: 24.0°C (75°F) [RH = 70%]
Pressure (altimeter): 29.76 inches Hg (1008.0 mb)
Winds: from the NNW (340 degrees) at 12 MPH (10 knots; 5.1 m/s)
Visibility: 5 miles ( 8 km)
Ceiling: at least 12,000 feet AGL
Clouds: few clouds at 1500 feet AGL
scattered clouds at 2000 feet AGL
few clouds at 2500 feet AGL
Weather: no significant weather observed at this time

METAR text: VOCL 150700Z 36006KT 6000 FEW015 SCT020 FEW025CB 30/24 Q1009 NOSIG
Conditions at: VOCL (CALICUT , IN) observed 0700 UTC 15 July 2019
Temperature: 30.0°C (86°F)
Dewpoint: 24.0°C (75°F) [RH = 70%]
Pressure (altimeter): 29.79 inches Hg (1009.0 mb)
Winds: from the N (360 degrees) at 7 MPH (6 knots; 3.1 m/s)
Visibility: 4 miles ( 6 km)
Ceiling: at least 12,000 feet AGL
Clouds: few clouds at 1500 feet AGL
scattered clouds at 2000 feet AGL
few clouds at 2500 feet AGL
Weather: no significant weather observed at this time

METAR text: VOCL 150630Z 35007KT 6000 FEW015 SCT020 FEW025CB 30/24 Q1009 NOSIG
Conditions at: VOCL (CALICUT , IN) observed 0630 UTC 15 July 2019
Temperature: 30.0°C (86°F)
Dewpoint: 24.0°C (75°F) [RH = 70%]
Pressure (altimeter): 29.79 inches Hg (1009.0 mb)
Winds: from the N (350 degrees) at 8 MPH (7 knots; 3.6 m/s)
Visibility: 4 miles ( 6 km)
Ceiling: at least 12,000 feet AGL
Clouds: few clouds at 1500 feet AGL
scattered clouds at 2000 feet AGL
few clouds at 2500 feet AGL
Weather: no significant weather observed at this time

METAR text: VOCL 150600Z 34006KT 6000 FEW012 SCT020 FEW025TCU 29/24 Q1010 NOSIG
Conditions at: VOCL (CALICUT , IN) observed 0600 UTC 15 July 2019
Temperature: 29.0°C (84°F)
Dewpoint: 24.0°C (75°F) [RH = 74%]
Pressure (altimeter): 29.82 inches Hg (1010.0 mb)
Winds: from the NNW (340 degrees) at 7 MPH (6 knots; 3.1 m/s)
Visibility: 4 miles ( 6 km)
Ceiling: at least 12,000 feet AGL
Clouds: few clouds at 1200 feet AGL
scattered clouds at 2000 feet AGL
few clouds at 2500 feet AGL
Weather: no significant weather observed at this time

METAR text: VOCL 150530Z 30008KT 6000 FEW012 SCT020 FEW025TCU 29/24 Q1010 NOSIG
Conditions at: VOCL (CALICUT , IN) observed 0530 UTC 15 July 2019
Temperature: 29.0°C (84°F)
Dewpoint: 24.0°C (75°F) [RH = 74%]
Pressure (altimeter): 29.82 inches Hg (1010.0 mb)
Winds: from the WNW (300 degrees) at 9 MPH (8 knots; 4.1 m/s)
Visibility: 4 miles ( 6 km)
Ceiling: at least 12,000 feet AGL
Clouds: few clouds at 1200 feet AGL
scattered clouds at 2000 feet AGL
few clouds at 2500 feet AGL
Weather: no significant weather observed at this time

METAR text: VOCL 150500Z 31006KT 6000 FEW012 SCT020 FEW025TCU 29/24 Q1010 NOSIG
Conditions at: VOCL (CALICUT , IN) observed 0500 UTC 15 July 2019
Temperature: 29.0°C (84°F)
Dewpoint: 24.0°C (75°F) [RH = 74%]
Pressure (altimeter): 29.82 inches Hg (1010.0 mb)
Winds: from the NW (310 degrees) at 7 MPH (6 knots; 3.1 m/s)
Visibility: 4 miles ( 6 km)
Ceiling: at least 12,000 feet AGL
Clouds: few clouds at 1200 feet AGL
scattered clouds at 2000 feet AGL
few clouds at 2500 feet AGL
Weather: no significant weather observed at this time

METAR text: VOCL 150430Z 02005KT 6000 FEW012 BKN080 28/24 Q1010 NOSIG
Conditions at: VOCL (CALICUT , IN) observed 0430 UTC 15 July 2019
Temperature: 28.0°C (82°F)
Dewpoint: 24.0°C (75°F) [RH = 79%]
Pressure (altimeter): 29.82 inches Hg (1010.0 mb)
Winds: from the NNE (20 degrees) at 6 MPH (5 knots; 2.6 m/s)
Visibility: 4 miles ( 6 km)
Ceiling: 8000 feet AGL
Clouds: few clouds at 1200 feet AGL
broken clouds at 8000 feet AGL
Weather: no significant weather observed at this time

METAR text: VOCL 150400Z 01004KT 6000 FEW012 BKN080 28/24 Q1010 NOSIG
Conditions at: VOCL (CALICUT , IN) observed 0400 UTC 15 July 2019
Temperature: 28.0°C (82°F)
Dewpoint: 24.0°C (75°F) [RH = 79%]
Pressure (altimeter): 29.82 inches Hg (1010.0 mb)
Winds: from the N (10 degrees) at 5 MPH (4 knots; 2.1 m/s)
Visibility: 4 miles ( 6 km)
Ceiling: 8000 feet AGL
Clouds: few clouds at 1200 feet AGL
broken clouds at 8000 feet AGL
Weather: no significant weather observed at this time

METAR text: VOCL 150330Z 02005KT 6000 FEW012 BKN080 27/24 Q1010 NOSIG
Conditions at: VOCL (CALICUT , IN) observed 0330 UTC 15 July 2019
Temperature: 27.0°C (81°F)
Dewpoint: 24.0°C (75°F) [RH = 84%]
Pressure (altimeter): 29.82 inches Hg (1010.0 mb)
Winds: from the NNE (20 degrees) at 6 MPH (5 knots; 2.6 m/s)
Visibility: 4 miles ( 6 km)
Ceiling: 8000 feet AGL
Clouds: few clouds at 1200 feet AGL
broken clouds at 8000 feet AGL
Weather: no significant weather observed at this time

METAR text: VOCL 150300Z 02005KT 4000 BR FEW003 SCT012 BKN080 26/23 Q1010 BECMG 5000 BR
Conditions at: VOCL (CALICUT , IN) observed 0300 UTC 15 July 2019
Temperature: 26.0°C (79°F)
Dewpoint: 23.0°C (73°F) [RH = 84%]
Pressure (altimeter): 29.82 inches Hg (1010.0 mb)
Winds: from the NNE (20 degrees) at 6 MPH (5 knots; 2.6 m/s)
Visibility: 2.49 miles (4.01 km)
Ceiling: 8000 feet AGL
Clouds: few clouds at 300 feet AGL
scattered clouds at 1200 feet AGL
broken clouds at 8000 feet AGL
Weather: BR  (mist)

METAR text: VOCL 150230Z 00000KT 4000 BR FEW002 SCT012 BKN080 26/24 Q1010 NOSIG
Conditions at: VOCL (CALICUT , IN) observed 0230 UTC 15 July 2019
Temperature: 26.0°C (79°F)
Dewpoint: 24.0°C (75°F) [RH = 89%]
Pressure (altimeter): 29.82 inches Hg (1010.0 mb)
Winds: calm
Visibility: 2.49 miles (4.01 km)
Ceiling: 8000 feet AGL
Clouds: few clouds at 200 feet AGL
scattered clouds at 1200 feet AGL
broken clouds at 8000 feet AGL
Weather: BR  (mist)

METAR text: VOCL 150200Z 35002KT 4000 BR FEW002 SCT012 BKN080 25/23 Q1009 NOSIG
Conditions at: VOCL (CALICUT , IN) observed 0200 UTC 15 July 2019
Temperature: 25.0°C (77°F)
Dewpoint: 23.0°C (73°F) [RH = 89%]
Pressure (altimeter): 29.79 inches Hg (1009.0 mb)
Winds: from the N (350 degrees) at 2 MPH (2 knots; 1.0 m/s)
Visibility: 2.49 miles (4.01 km)
Ceiling: 8000 feet AGL
Clouds: few clouds at 200 feet AGL
scattered clouds at 1200 feet AGL
broken clouds at 8000 feet AGL
Weather: BR  (mist)

METAR text: VOCL 150130Z 34003KT 4000 BR FEW002 SCT012 BKN080 25/23 Q1009 NOSIG
Conditions at: VOCL (CALICUT , IN) observed 0130 UTC 15 July 2019
Temperature: 25.0°C (77°F)
Dewpoint: 23.0°C (73°F) [RH = 89%]
Pressure (altimeter): 29.79 inches Hg (1009.0 mb)
Winds: from the NNW (340 degrees) at 3 MPH (3 knots; 1.5 m/s)
Visibility: 2.49 miles (4.01 km)
Ceiling: 8000 feet AGL
Clouds: few clouds at 200 feet AGL
scattered clouds at 1200 feet AGL
broken clouds at 8000 feet AGL
Weather: BR  (mist)

METAR text: VOCL 150100Z 00000KT 4000 BR FEW002 SCT012 BKN080 25/24 Q1009 TEMPO 3000 BR
Conditions at: VOCL (CALICUT , IN) observed 0100 UTC 15 July 2019
Temperature: 25.0°C (77°F)
Dewpoint: 24.0°C (75°F) [RH = 94%]
Pressure (altimeter): 29.79 inches Hg (1009.0 mb)
Winds: calm
Visibility: 2.49 miles (4.01 km)
Ceiling: 8000 feet AGL
Clouds: few clouds at 200 feet AGL
scattered clouds at 1200 feet AGL
broken clouds at 8000 feet AGL
Weather: BR  (mist)

Forecast for: VOCL (CALICUT , IN)
Text: TAF VOCL 160800Z 1609/1618 31010KT 5000 HZ SCT015 BKN090
Forecast period: 0900 to 1700 UTC 16 July 2019
Forecast type: FROM: standard forecast or significant change
Winds: from the NW (310 degrees) at 12 MPH (10 knots; 5.1 m/s)
Visibility: 3 miles (5 km)
Ceiling: 9000 feet AGL
Clouds: scattered clouds at 1500 feet AGL
broken clouds at 9000 feet AGL
Weather: HZ  (haze)
Text: TEMPO 1609/1612 2000 TSRA RA SCT010 FEW025CB BKN090
Forecast period: 0900 to 1200 UTC 16 July 2019
Forecast type: TEMPORARY: The following changes expected for less than half the time period
Visibility: 1.24 miles (2.00 km)
Ceiling: 9000 feet AGL
Clouds: scattered clouds at 1000 feet AGL
few clouds at 2500 feet AGL
broken clouds at 9000 feet AGL
Weather: TSRA RA  (rain associated with thunderstorm(s), moderate rain)
Text: BECMG 1617/1618 35005KT 4000 HZ
Forecast period: 1700 to 1800 UTC 16 July 2019
Forecast type: BECOMING: Conditions expected to become as follows by 1800 UTC 16 July 2019
Winds: from the N (350 degrees) at 6 MPH (5 knots; 2.6 m/s)
Visibility: 2.49 miles (4.01 km)
Ceiling: 9000 feet AGL
Clouds: scattered clouds at 1500 feet AGL
broken clouds at 9000 feet AGL
Weather: HZ  (haze)